SLCBSLTJ

Guest
Details From SLCB - JORGE WILSTERMAN
To SLTJ - CAPITAN ORIEL LEA PLAZA
Flight Number -
Tags generated
Created
Modified
Stats Distance 265 nm / 490 km
Max Altitude 33,500 ft / 10,211 m
Waypoints 5
Social Downloads 1
Likes 0
Share VATSIM

Download

Looking for another format? Having issues loading an existing format? Contact us
Advertisement - Login to hide

Notes

Basic altitude profile: - Ascent Rate: 2500ft/min - Ascent Speed: 250kts - Cruise Altitude: 28000ft - Cruise Speed: 335kts - Descent Rate: 2000ft/min - Descent Speed: 250kts Options: - Use NATs: yes - Use PACOTS: yes - Use low airways: no - Use high airways: yes

Route

SLCB CBA UW2 TAR SLTJ

ID Type Via Altitude Latitude Longitude Leg Dist Tot Dist Heading (true) Name
O SLCB APT - 0 ft / 0 m -17.42039˚ -66.17717˚ - 0 nm - JORGE WILSTERMAN
CBA VOR - 0 ft / 0 m -17.42126˚ -66.17904˚ 0 nm 0 nm 244° / 244° COCHABAMBA VOR-DME
SUR VOR UW2 (AWY-HI) 33,500 ft / 10,211 m -19.01131˚ -65.29158˚ 108 nm 108 nm 152° / 152° SUCRE VOR-DME
TAR VOR UW2 (AWY-HI) 23,500 ft / 7,163 m -21.54575˚ -64.71290˚ 155 nm 263 nm 168° / 168° TARIJA VOR-DME
O SLTJ APT - 0 ft / 0 m -21.55574˚ -64.70133˚ 0 nm 264 nm 133° / 133° CAPITAN ORIEL LEA PLAZA

Altitude Profile

Advertisement - Login to hide

Weather


0- 5 10 15 20 25 30 35+ Temperature / ° C

Clouds and Precipitation
Forecast for 2018-05-25 00:00 UTC. Updated 3 hours ago

Ground ~20,000 ft ~40,000 ft Winds

SLCB

Details ICAO SLCB (CBB)
Name JORGE WILSTERMAN
Region Bolivia
Timezone America/La_Paz (UTC-4.0)
Stats Elevation 8,360 ft / 2,548 m (AMSL)
Location -17.420390° -66.177166°
Runways 2
Magnetic Variation 9.479° W

METAR

SLCB 250200Z 14005KT 9999 NSC 14/03 Q1026

Decode

TAF

TAF SLCB 241700Z 2418/2518 30010KT 9999 NSC TX28/2419Z TN05/2511Z TEMPO 2423/2501 16010KT BECMG 2502/2504 00000KT

Decode

Departure Runways

ID Width Length Bearing (true) Bearing (mag) Surface Threshold Offset Overrun Length
04 148 ft / 45 m 8,716 ft / 2,657 m 37.26° 46.74° Asphalt 0 ft / 0 m 0 ft / 0 m
14 148 ft / 45 m 12,480 ft / 3,804 m 132.10° 141.58° Asphalt 328 ft / 100 m 199 ft / 61 m
22 148 ft / 45 m 8,716 ft / 2,657 m 217.25° 226.73° Asphalt 732 ft / 223 m 0 ft / 0 m
32 148 ft / 45 m 12,480 ft / 3,804 m 312.09° 321.57° Asphalt 984 ft / 300 m 201 ft / 61 m

SLTJ

Details ICAO SLTJ (TJA)
Name CAPITAN ORIEL LEA PLAZA
Region Bolivia
Timezone America/La_Paz (UTC-4.0)
Stats Elevation 6,084 ft / 1,854 m (AMSL)
Location -21.555737° -64.701326°
Runways 1
Magnetic Variation 9.485° W

METAR

SLTJ 250200Z 13004KT 9999 NSC 09/04 Q1025

Decode

TAF

TAF SLTJ 241700Z 2418/2518 14012KT 9999 NSC TX19/2419Z TN07/2511Z BECMG 2503/2505 00000KT SCT023 SCT070 BECMG 2507/2509 BKN020

Decode

Destination Runways

ID Width Length Bearing (true) Bearing (mag) Surface Threshold Offset Overrun Length
13 148 ft / 45 m 9,970 ft / 3,039 m 124.42° 133.90° Asphalt 0 ft / 0 m 0 ft / 0 m
31 148 ft / 45 m 9,970 ft / 3,039 m 304.41° 313.89° Asphalt 0 ft / 0 m 0 ft / 0 m

Popular Alternatives